Time;durP1;ratioP1;P1;durP2;ratioP2;P2;SDS_P1;SDS_P2;PMS_P1;PMS_P2;Temp;Humidity;BMP_temperature;BMP_pressure;BME280_temperature;BME280_humidity;BME280_pressure;Samples;Min_cycle;Max_cycle;Signal;HPM_P1;HPM_P2
2021/08/23 00:00:41;;;;;;;3.35;1.95;;;;;;;;;;5023425;28;20032;-76
2021/08/23 00:03:07;;;;;;;4.68;2.15;;;;;;;;;;5026009;28;20393;-77
2021/08/23 00:05:33;;;;;;;16.67;3.95;;;;;;;;;;5023960;28;20030;-77
2021/08/23 00:07:59;;;;;;;4.63;2.40;;;;;;;;;;5040500;28;20029;-77
2021/08/23 00:10:26;;;;;;;5.38;1.83;;;;;;;;;;5025298;28;20131;-76
2021/08/23 00:12:52;;;;;;;3.58;1.73;;;;;;;;;;5039948;28;20486;-76
2021/08/23 00:15:18;;;;;;;4.00;1.70;;;;;;;;;;5025426;28;20074;-76
2021/08/23 00:17:44;;;;;;;3.20;1.83;;;;;;;;;;5025420;28;20040;-76
2021/08/23 00:20:13;;;;;;;4.47;1.80;;;;;;;;;;5024377;28;20018;-76
2021/08/23 00:22:47;;;;;;;5.57;1.95;;;;;;;;;;5025466;28;20017;-77
2021/08/23 00:25:14;;;;;;;10.38;2.42;;;;;;;;;;5040755;28;20120;-76
2021/08/23 00:27:40;;;;;;;4.75;2.17;;;;;;;;;;5023441;28;20100;-76
2021/08/23 00:30:07;;;;;;;2.97;1.75;;;;;;;;;;5022985;28;20117;-78
2021/08/23 00:32:33;;;;;;;4.82;2.10;;;;;;;;;;5025426;28;20036;-77
2021/08/23 00:35:00;;;;;;;5.60;1.92;;;;;;;;;;5024361;28;20120;-76
2021/08/23 00:37:26;;;;;;;7.80;2.15;;;;;;;;;;5025129;28;20064;-78
2021/08/23 00:39:52;;;;;;;4.57;1.77;;;;;;;;;;5039803;28;20052;-77
2021/08/23 00:42:18;;;;;;;4.75;2.10;;;;;;;;;;5024055;28;20057;-76
2021/08/23 00:44:44;;;;;;;5.22;1.98;;;;;;;;;;5024729;28;20572;-77
2021/08/23 00:47:10;;;;;;;3.70;2.20;;;;;;;;;;5024614;28;20109;-76
2021/08/23 00:49:37;;;;;;;3.35;1.80;;;;;;;;;;5039281;28;20049;-78
2021/08/23 00:52:03;;;;;;;3.33;1.67;;;;;;;;;;5023980;28;20083;-76
2021/08/23 00:54:30;;;;;;;2.97;1.98;;;;;;;;;;5024152;28;20114;-76
2021/08/23 00:56:56;;;;;;;3.25;2.05;;;;;;;;;;5024216;28;20029;-78
2021/08/23 00:59:23;;;;;;;4.35;1.77;;;;;;;;;;5027741;28;20022;-75
2021/08/23 01:02:00;;;;;;;5.18;2.05;;;;;;;;;;5043219;28;20112;-76
2021/08/23 01:04:44;;;;;;;3.78;1.75;;;;;;;;;;5027759;28;20401;-76
2021/08/23 01:07:12;;;;;;;4.72;2.00;;;;;;;;;;5042992;28;20057;-76
2021/08/23 01:09:39;;;;;;;3.30;1.90;;;;;;;;;;5042612;28;20146;-76
2021/08/23 01:12:07;;;;;;;3.20;1.70;;;;;;;;;;5028231;28;20050;-76
2021/08/23 01:14:33;;;;;;;4.63;2.00;;;;;;;;;;5043075;28;20029;-77
2021/08/23 01:17:00;;;;;;;5.00;2.00;;;;;;;;;;5062691;22;20216;-81
2021/08/23 01:19:27;;;;;;;4.40;1.60;;;;;;;;;;5101447;28;20210;-80
2021/08/23 01:21:55;;;;;;;4.45;2.10;;;;;;;;;;5104189;28;20024;-80
2021/08/23 01:24:22;;;;;;;5.10;1.90;;;;;;;;;;5123381;28;20020;-81
2021/08/23 01:26:49;;;;;;;2.40;1.55;;;;;;;;;;5101776;28;20055;-80
2021/08/23 01:29:18;;;;;;;2.97;1.83;;;;;;;;;;5105196;28;20098;-81
2021/08/23 01:31:56;;;;;;;3.53;1.90;;;;;;;;;;5069146;28;20116;-82
2021/08/23 01:34:23;;;;;;;5.35;1.80;;;;;;;;;;5084472;28;20035;-82
2021/08/23 01:36:49;;;;;;;3.60;1.58;;;;;;;;;;5082897;28;20540;-81
2021/08/23 01:39:16;;;;;;;4.35;1.90;;;;;;;;;;5065035;28;20040;-81
2021/08/23 01:41:42;;;;;;;4.80;2.00;;;;;;;;;;5080412;28;20024;-82
2021/08/23 01:44:08;;;;;;;3.53;1.60;;;;;;;;;;5105870;28;20063;-80
2021/08/23 01:46:34;;;;;;;3.00;1.73;;;;;;;;;;5104429;28;20028;-82
2021/08/23 01:49:01;;;;;;;4.68;1.67;;;;;;;;;;5103269;28;20080;-80
2021/08/23 01:51:27;;;;;;;5.13;1.80;;;;;;;;;;5101668;28;20032;-80
2021/08/23 01:53:53;;;;;;;7.38;1.63;;;;;;;;;;5102354;28;20026;-81
2021/08/23 01:56:20;;;;;;;4.18;2.00;;;;;;;;;;5101790;28;20172;-80
2021/08/23 01:58:46;;;;;;;3.55;1.65;;;;;;;;;;5101025;28;20063;-80
2021/08/23 02:01:12;;;;;;;5.60;2.00;;;;;;;;;;5101042;28;20664;-80
2021/08/23 02:03:38;;;;;;;3.38;1.58;;;;;;;;;;5101735;28;20023;-81
2021/08/23 02:06:04;;;;;;;5.80;2.03;;;;;;;;;;5103953;28;20028;-81
2021/08/23 02:08:30;;;;;;;5.43;1.75;;;;;;;;;;5086480;28;20035;-81
2021/08/23 02:10:56;;;;;;;5.80;2.03;;;;;;;;;;5103038;28;20036;-81
2021/08/23 02:13:22;;;;;;;2.70;1.40;;;;;;;;;;5104344;28;20067;-81
2021/08/23 02:15:48;;;;;;;7.78;1.60;;;;;;;;;;5085542;28;20031;-80
2021/08/23 02:18:14;;;;;;;8.50;2.17;;;;;;;;;;5085755;28;20475;-81
2021/08/23 02:20:40;;;;;;;6.53;1.90;;;;;;;;;;5103704;28;20028;-82
2021/08/23 02:23:06;;;;;;;5.03;2.05;;;;;;;;;;5104071;28;20031;-81
2021/08/23 02:25:32;;;;;;;2.33;1.50;;;;;;;;;;5104714;28;20063;-81
2021/08/23 02:27:58;;;;;;;4.43;2.03;;;;;;;;;;5104398;28;20020;-82
2021/08/23 02:30:24;;;;;;;3.85;1.60;;;;;;;;;;5086906;28;20039;-82
2021/08/23 02:32:51;;;;;;;5.43;1.92;;;;;;;;;;5107124;28;20024;-82
2021/08/23 02:35:18;;;;;;;4.20;1.70;;;;;;;;;;5106238;28;20028;-81
2021/08/23 02:37:44;;;;;;;6.55;1.75;;;;;;;;;;5071840;28;20020;-80
2021/08/23 02:40:10;;;;;;;4.13;2.03;;;;;;;;;;5105644;28;20036;-82
2021/08/23 02:42:37;;;;;;;3.25;1.90;;;;;;;;;;5089759;28;20039;-80
2021/08/23 02:45:03;;;;;;;5.30;1.90;;;;;;;;;;5103464;28;20020;-80
2021/08/23 02:47:29;;;;;;;6.82;2.08;;;;;;;;;;5090312;28;20031;-81
2021/08/23 02:49:55;;;;;;;4.57;1.80;;;;;;;;;;5084287;28;20024;-82
2021/08/23 02:52:21;;;;;;;7.70;2.05;;;;;;;;;;5098048;28;20024;-82
2021/08/23 02:54:47;;;;;;;4.50;2.08;;;;;;;;;;5081829;28;20051;-82
2021/08/23 02:57:13;;;;;;;4.15;2.55;;;;;;;;;;5105841;28;20031;-81
2021/08/23 02:59:39;;;;;;;6.63;2.10;;;;;;;;;;5107913;28;20028;-83
2021/08/23 03:02:05;;;;;;;6.30;2.97;;;;;;;;;;5110182;28;20028;-81
2021/08/23 03:04:31;;;;;;;6.20;2.40;;;;;;;;;;5110460;28;20035;-83
2021/08/23 03:06:57;;;;;;;4.40;2.60;;;;;;;;;;5111630;28;20049;-83
2021/08/23 03:09:23;;;;;;;4.88;2.63;;;;;;;;;;5100408;28;20032;-83
2021/08/23 03:11:49;;;;;;;8.10;3.17;;;;;;;;;;5118537;28;20012;-80
2021/08/23 03:14:15;;;;;;;7.45;2.97;;;;;;;;;;5098222;28;20028;-82
2021/08/23 03:16:41;;;;;;;7.18;2.80;;;;;;;;;;5112455;28;20040;-82
2021/08/23 03:19:07;;;;;;;5.57;3.15;;;;;;;;;;5092359;28;20077;-82
2021/08/23 03:21:33;;;;;;;9.05;2.92;;;;;;;;;;5111160;28;20044;-82
2021/08/23 03:23:59;;;;;;;5.72;3.10;;;;;;;;;;5092865;28;20050;-82
2021/08/23 03:26:25;;;;;;;7.07;3.10;;;;;;;;;;5110228;28;20016;-82
2021/08/23 03:28:52;;;;;;;7.13;3.45;;;;;;;;;;5110460;28;20042;-83
2021/08/23 03:31:18;;;;;;;5.78;3.63;;;;;;;;;;5083291;28;20537;-84
2021/08/23 03:33:44;;;;;;;5.35;3.05;;;;;;;;;;5082583;28;20024;-84
2021/08/23 03:36:10;;;;;;;12.20;4.75;;;;;;;;;;5082610;28;20026;-83
2021/08/23 03:38:36;;;;;;;6.72;3.25;;;;;;;;;;5068606;28;20016;-82
2021/08/23 03:41:02;;;;;;;8.05;3.40;;;;;;;;;;5104247;28;20029;-81
2021/08/23 03:43:28;;;;;;;6.45;3.20;;;;;;;;;;5090491;28;20021;-81
2021/08/23 03:45:54;;;;;;;6.07;3.45;;;;;;;;;;5092754;28;20123;-81
2021/08/23 03:48:20;;;;;;;5.40;3.42;;;;;;;;;;5109827;28;20052;-82
2021/08/23 03:50:46;;;;;;;5.78;3.35;;;;;;;;;;5110330;28;20039;-83
2021/08/23 03:53:12;;;;;;;8.60;3.42;;;;;;;;;;5110354;28;20028;-82
2021/08/23 03:55:38;;;;;;;8.02;3.67;;;;;;;;;;5093155;28;20088;-82
2021/08/23 03:58:04;;;;;;;5.75;3.10;;;;;;;;;;5130895;28;20047;-82
2021/08/23 04:00:30;;;;;;;8.00;3.30;;;;;;;;;;5131017;28;20031;-82
2021/08/23 04:02:57;;;;;;;7.82;3.63;;;;;;;;;;5130839;28;20026;-81
2021/08/23 04:05:23;;;;;;;8.13;3.42;;;;;;;;;;5131251;28;20030;-81
2021/08/23 04:07:49;;;;;;;5.40;2.95;;;;;;;;;;5112716;28;20060;-81
2021/08/23 04:10:15;;;;;;;8.30;3.95;;;;;;;;;;5108863;28;20078;-81
2021/08/23 04:12:41;;;;;;;4.85;3.30;;;;;;;;;;5087808;28;20092;-81
2021/08/23 04:15:08;;;;;;;7.45;4.57;;;;;;;;;;5070074;28;20095;-81
2021/08/23 04:17:34;;;;;;;6.32;3.78;;;;;;;;;;5120738;28;20088;-81
2021/08/23 04:20:03;;;;;;;5.40;2.78;;;;;;;;;;5131059;28;20023;-82
2021/08/23 04:22:29;;;;;;;4.43;2.85;;;;;;;;;;5130925;28;20079;-82
2021/08/23 04:24:55;;;;;;;8.85;3.28;;;;;;;;;;5133664;28;20049;-81
2021/08/23 04:27:21;;;;;;;10.38;3.08;;;;;;;;;;5118266;28;20040;-81
2021/08/23 04:29:47;;;;;;;8.25;3.38;;;;;;;;;;5110026;28;20091;-81
2021/08/23 04:32:13;;;;;;;5.28;3.58;;;;;;;;;;5109071;28;20080;-81
2021/08/23 04:34:39;;;;;;;7.80;3.10;;;;;;;;;;5109864;28;20028;-82
2021/08/23 04:37:05;;;;;;;8.52;3.67;;;;;;;;;;5120755;28;20059;-81
2021/08/23 04:39:32;;;;;;;6.35;3.03;;;;;;;;;;5129051;28;20035;-82
2021/08/23 04:41:58;;;;;;;6.20;3.47;;;;;;;;;;5115018;28;20028;-82
2021/08/23 04:44:24;;;;;;;5.57;3.65;;;;;;;;;;5109295;28;20074;-82
2021/08/23 04:46:50;;;;;;;7.10;3.55;;;;;;;;;;5101288;28;20031;-82
2021/08/23 04:49:19;;;;;;;4.97;2.88;;;;;;;;;;5130369;28;20012;-82
2021/08/23 04:51:45;;;;;;;5.15;3.85;;;;;;;;;;5132892;28;20036;-81
2021/08/23 04:54:11;;;;;;;4.90;3.30;;;;;;;;;;5133239;28;20061;-81
2021/08/23 04:56:37;;;;;;;5.68;3.45;;;;;;;;;;5082437;28;20032;-81
2021/08/23 04:59:03;;;;;;;12.00;3.78;;;;;;;;;;5101178;28;20116;-81
2021/08/23 05:01:29;;;;;;;6.63;3.25;;;;;;;;;;5103273;28;20032;-81
2021/08/23 05:03:55;;;;;;;8.57;3.28;;;;;;;;;;5085602;28;20028;-81
2021/08/23 05:06:21;;;;;;;8.57;3.65;;;;;;;;;;5099280;28;20032;-83
2021/08/23 05:08:47;;;;;;;7.63;3.47;;;;;;;;;;5096402;28;20032;-81
2021/08/23 05:11:13;;;;;;;9.88;3.53;;;;;;;;;;5094731;28;20499;-84
2021/08/23 05:13:39;;;;;;;8.43;3.67;;;;;;;;;;5074856;28;20047;-83
2021/08/23 05:16:05;;;;;;;8.48;3.83;;;;;;;;;;5075039;28;20024;-82
2021/08/23 05:18:31;;;;;;;8.80;3.53;;;;;;;;;;5085843;28;20037;-82
2021/08/23 05:21:03;;;;;;;8.93;4.03;;;;;;;;;;5059999;28;20049;-82
2021/08/23 05:23:30;;;;;;;9.52;3.55;;;;;;;;;;5077742;28;20052;-85
2021/08/23 05:25:56;;;;;;;8.38;3.58;;;;;;;;;;5079034;28;20032;-84
2021/08/23 05:28:22;;;;;;;14.23;3.20;;;;;;;;;;5097274;28;20032;-84
2021/08/23 05:30:48;;;;;;;6.72;3.55;;;;;;;;;;5097186;28;20024;-84
2021/08/23 05:33:14;;;;;;;6.40;3.33;;;;;;;;;;5080069;28;20511;-84
2021/08/23 05:35:40;;;;;;;7.15;3.78;;;;;;;;;;5082700;28;20032;-82
2021/08/23 05:38:06;;;;;;;8.82;2.90;;;;;;;;;;5083453;28;20032;-82
2021/08/23 05:40:32;;;;;;;8.93;3.30;;;;;;;;;;5101208;28;20032;-81
2021/08/23 05:42:58;;;;;;;5.15;3.15;;;;;;;;;;5084138;28;20423;-81
2021/08/23 05:45:24;;;;;;;6.68;2.97;;;;;;;;;;5088080;28;20043;-81
2021/08/23 05:47:50;;;;;;;6.35;2.97;;;;;;;;;;5105043;28;20028;-81
2021/08/23 05:50:16;;;;;;;5.03;2.97;;;;;;;;;;5105721;28;20083;-82
2021/08/23 05:52:42;;;;;;;5.43;2.75;;;;;;;;;;5089065;28;20036;-80
2021/08/23 05:55:08;;;;;;;8.68;3.20;;;;;;;;;;5088660;28;20048;-82
2021/08/23 05:57:34;;;;;;;4.85;2.90;;;;;;;;;;5086300;28;20020;-81
2021/08/23 06:00:00;;;;;;;5.88;3.10;;;;;;;;;;5114854;28;20033;-81
2021/08/23 06:02:26;;;;;;;6.57;3.08;;;;;;;;;;5107019;28;20087;-81
2021/08/23 06:04:52;;;;;;;6.95;2.92;;;;;;;;;;5093800;28;20032;-82
2021/08/23 06:07:18;;;;;;;5.85;2.60;;;;;;;;;;5068906;28;20078;-79
2021/08/23 06:09:45;;;;;;;5.18;2.75;;;;;;;;;;5085929;28;20028;-80
2021/08/23 06:12:11;;;;;;;10.75;2.75;;;;;;;;;;5068102;28;20031;-81
2021/08/23 06:14:40;;;;;;;6.63;2.30;;;;;;;;;;5060845;28;20035;-79
2021/08/23 06:17:06;;;;;;;7.57;3.33;;;;;;;;;;5091780;28;20028;-80
2021/08/23 06:19:32;;;;;;;8.18;2.75;;;;;;;;;;5095033;28;20396;-82
2021/08/23 06:21:58;;;;;;;6.13;2.50;;;;;;;;;;5062643;28;20043;-83
2021/08/23 06:24:24;;;;;;;7.07;2.88;;;;;;;;;;5081524;28;20453;-80
2021/08/23 06:26:50;;;;;;;5.97;2.88;;;;;;;;;;5084484;28;20031;-80
2021/08/23 06:29:16;;;;;;;4.85;2.80;;;;;;;;;;5079896;28;20056;-80
2021/08/23 06:31:43;;;;;;;10.57;3.63;;;;;;;;;;5071702;28;20040;-84
2021/08/23 06:34:09;;;;;;;4.38;2.50;;;;;;;;;;5069286;28;20028;-78
2021/08/23 06:36:40;;;;;;;5.95;2.58;;;;;;;;;;5066955;28;20043;-78
2021/08/23 06:39:06;;;;;;;5.15;2.50;;;;;;;;;;5090544;28;20024;-79
2021/08/23 06:41:32;;;;;;;5.20;2.35;;;;;;;;;;5092924;28;20024;-78
2021/08/23 06:43:58;;;;;;;6.85;3.30;;;;;;;;;;5095446;28;20085;-79
2021/08/23 06:46:24;;;;;;;4.88;2.20;;;;;;;;;;5092268;28;20036;-81
2021/08/23 06:48:50;;;;;;;7.30;2.55;;;;;;;;;;5078632;28;20028;-78
2021/08/23 06:51:20;;;;;;;7.68;2.45;;;;;;;;;;5077604;28;20024;-78
2021/08/23 06:53:47;;;;;;;4.40;2.33;;;;;;;;;;5096359;28;20030;-79
2021/08/23 06:56:13;;;;;;;8.30;3.13;;;;;;;;;;5095504;28;20024;-79
2021/08/23 06:58:39;;;;;;;4.53;2.40;;;;;;;;;;5094980;28;20027;-78
2021/08/23 07:01:05;;;;;;;7.57;2.47;;;;;;;;;;5093226;28;20028;-78
2021/08/23 07:03:31;;;;;;;4.38;2.35;;;;;;;;;;5092581;28;20028;-79
2021/08/23 07:05:59;;;;;;;3.92;2.40;;;;;;;;;;5075564;28;20036;-78
2021/08/23 07:08:25;;;;;;;5.68;2.28;;;;;;;;;;5076821;28;20024;-78
2021/08/23 07:10:51;;;;;;;5.35;2.85;;;;;;;;;;5095170;28;20042;-79
2021/08/23 07:13:17;;;;;;;5.40;2.55;;;;;;;;;;5095758;28;20032;-80
2021/08/23 07:15:44;;;;;;;7.60;2.55;;;;;;;;;;5098537;28;20066;-79
2021/08/23 07:18:10;;;;;;;4.78;2.53;;;;;;;;;;5081754;28;20034;-79
2021/08/23 07:20:36;;;;;;;4.50;2.30;;;;;;;;;;5097169;28;20472;-79
2021/08/23 07:23:02;;;;;;;4.88;2.58;;;;;;;;;;5088055;28;20032;-80
2021/08/23 07:25:28;;;;;;;6.35;2.83;;;;;;;;;;5077163;28;20111;-80
2021/08/23 07:27:54;;;;;;;7.22;2.55;;;;;;;;;;5075043;28;20218;-79
2021/08/23 07:30:20;;;;;;;5.75;2.80;;;;;;;;;;5077401;28;20114;-79
2021/08/23 07:32:46;;;;;;;5.68;2.70;;;;;;;;;;5079058;28;20017;-79
2021/08/23 07:35:13;;;;;;;7.20;2.33;;;;;;;;;;5076264;28;20025;-80
2021/08/23 07:37:46;;;;;;;6.78;2.28;;;;;;;;;;5078187;28;20032;-79
2021/08/23 07:40:12;;;;;;;4.22;2.13;;;;;;;;;;5077587;28;20028;-80
2021/08/23 07:42:38;;;;;;;6.53;2.13;;;;;;;;;;5097943;28;20074;-80
2021/08/23 07:45:05;;;;;;;3.38;1.95;;;;;;;;;;5080420;28;20363;-80
2021/08/23 07:47:31;;;;;;;6.40;2.30;;;;;;;;;;5077592;28;20086;-79
2021/08/23 07:49:57;;;;;;;4.88;2.33;;;;;;;;;;5083793;28;20033;-80
2021/08/23 07:52:22;;;;;;;4.10;1.90;;;;;;;;;;5097464;28;20059;-80
2021/08/23 07:54:48;;;;;;;4.95;1.98;;;;;;;;;;5096804;28;20384;-80
2021/08/23 07:57:15;;;;;;;6.18;2.13;;;;;;;;;;5098446;28;20035;-80
2021/08/23 07:59:41;;;;;;;7.78;1.90;;;;;;;;;;5097743;28;20646;-80
2021/08/23 08:02:07;;;;;;;7.13;2.00;;;;;;;;;;5093064;28;20020;-80
2021/08/23 08:04:33;;;;;;;7.85;2.28;;;;;;;;;;5079110;28;20025;-80
2021/08/23 08:06:59;;;;;;;7.18;2.65;;;;;;;;;;5077114;28;20047;-80
2021/08/23 08:09:25;;;;;;;5.10;2.00;;;;;;;;;;5077800;28;20067;-79
2021/08/23 08:11:51;;;;;;;3.97;1.98;;;;;;;;;;5062056;28;20136;-79
2021/08/23 08:14:17;;;;;;;5.45;2.25;;;;;;;;;;5062094;28;20032;-80
2021/08/23 08:16:43;;;;;;;6.05;2.10;;;;;;;;;;5060765;28;20039;-80
2021/08/23 08:19:09;;;;;;;3.65;2.10;;;;;;;;;;5078340;28;20029;-80
2021/08/23 08:21:35;;;;;;;3.05;2.03;;;;;;;;;;5079686;28;20024;-80
2021/08/23 08:24:01;;;;;;;6.55;2.28;;;;;;;;;;5084335;28;20065;-80
2021/08/23 08:26:27;;;;;;;5.47;2.00;;;;;;;;;;5100434;28;20460;-79
2021/08/23 08:28:53;;;;;;;4.20;1.67;;;;;;;;;;5097232;28;20032;-80
2021/08/23 08:31:19;;;;;;;7.40;2.13;;;;;;;;;;5108207;28;20023;-79
2021/08/23 08:33:46;;;;;;;3.72;1.95;;;;;;;;;;5093788;28;20119;-80
2021/08/23 08:36:14;;;;;;;7.30;2.25;;;;;;;;;;5079147;28;20500;-79
2021/08/23 08:38:40;;;;;;;3.47;1.80;;;;;;;;;;5098259;28;20024;-80
2021/08/23 08:41:06;;;;;;;2.97;1.65;;;;;;;;;;5099469;28;20107;-80
2021/08/23 08:43:32;;;;;;;4.13;1.85;;;;;;;;;;5098410;28;20049;-80
2021/08/23 08:45:58;;;;;;;5.43;2.10;;;;;;;;;;5096680;28;20043;-80
2021/08/23 08:48:24;;;;;;;8.10;2.05;;;;;;;;;;5097678;28;20028;-80
2021/08/23 08:50:51;;;;;;;3.75;2.13;;;;;;;;;;5097186;28;20589;-80
2021/08/23 08:53:17;;;;;;;4.68;1.65;;;;;;;;;;5095805;28;20024;-80
2021/08/23 08:55:43;;;;;;;4.50;1.92;;;;;;;;;;5096197;28;20048;-80
2021/08/23 08:58:10;;;;;;;4.07;2.00;;;;;;;;;;5077697;28;20016;-80
2021/08/23 09:00:40;;;;;;;2.80;1.70;;;;;;;;;;5076297;28;20039;-81
2021/08/23 09:03:06;;;;;;;5.10;2.00;;;;;;;;;;5096212;28;20016;-80
2021/08/23 09:05:37;;;;;;;2.63;1.35;;;;;;;;;;5097142;28;20511;-79
2021/08/23 09:08:03;;;;;;;3.95;1.30;;;;;;;;;;5097563;28;20020;-80
2021/08/23 09:10:31;;;;;;;4.13;1.27;;;;;;;;;;5079270;28;20024;-79
2021/08/23 09:13:03;;;;;;;3.53;1.50;;;;;;;;;;5094051;28;20035;-79
2021/08/23 09:15:29;;;;;;;3.05;1.45;;;;;;;;;;5077267;28;20075;-81
2021/08/23 09:18:02;;;;;;;3.47;1.30;;;;;;;;;;5058847;28;20043;-81
2021/08/23 09:20:29;;;;;;;2.60;1.40;;;;;;;;;;5081351;28;20036;-81
2021/08/23 09:23:06;;;;;;;3.08;1.38;;;;;;;;;;5077124;28;20395;-80
2021/08/23 09:25:32;;;;;;;2.30;1.40;;;;;;;;;;5079028;28;20054;-80
2021/08/23 09:28:05;;;;;;;3.20;1.48;;;;;;;;;;5058887;28;20664;-81
2021/08/23 09:30:31;;;;;;;4.43;1.30;;;;;;;;;;5091598;28;20073;-80
2021/08/23 09:33:00;;;;;;;3.03;1.50;;;;;;;;;;5095681;28;20515;-80
2021/08/23 09:35:30;;;;;;;5.47;1.42;;;;;;;;;;5078994;28;20032;-81
2021/08/23 09:37:57;;;;;;;2.92;1.33;;;;;;;;;;5098360;28;20024;-80
2021/08/23 09:40:33;;;;;;;3.92;2.42;;;;;;;;;;5098498;28;20031;-79
2021/08/23 09:43:03;;;;;;;2.97;1.30;;;;;;;;;;5095562;28;20027;-79
2021/08/23 09:45:29;;;;;;;1.65;1.10;;;;;;;;;;5094755;28;20607;-78
2021/08/23 09:47:59;;;;;;;1.63;1.13;;;;;;;;;;5096328;28;20063;-78
2021/08/23 09:50:28;;;;;;;6.00;1.40;;;;;;;;;;5093464;28;20088;-79
2021/08/23 09:53:05;;;;;;;3.33;1.20;;;;;;;;;;5097650;28;20091;-79
2021/08/23 09:55:31;;;;;;;2.33;1.23;;;;;;;;;;5097796;28;20043;-78
2021/08/23 09:57:57;;;;;;;3.75;1.20;;;;;;;;;;5077698;28;20107;-79
2021/08/23 10:00:23;;;;;;;3.45;1.30;;;;;;;;;;5074921;28;20502;-79
2021/08/23 10:02:49;;;;;;;2.35;1.58;;;;;;;;;;5098207;28;20028;-80
2021/08/23 10:05:16;;;;;;;3.38;1.20;;;;;;;;;;5098411;28;20008;-78
2021/08/23 10:07:43;;;;;;;2.03;1.30;;;;;;;;;;5100328;28;20031;-79
2021/08/23 10:10:10;;;;;;;3.25;1.50;;;;;;;;;;5095326;28;20073;-79
2021/08/23 10:12:36;;;;;;;3.63;1.75;;;;;;;;;;5077061;28;20549;-80
2021/08/23 10:15:02;;;;;;;4.00;1.52;;;;;;;;;;5095353;28;20034;-80
2021/08/23 10:17:37;;;;;;;3.28;1.52;;;;;;;;;;5076007;28;20107;-80
2021/08/23 10:20:07;;;;;;;3.13;1.75;;;;;;;;;;5075145;28;20107;-79
2021/08/23 10:22:34;;;;;;;3.80;1.70;;;;;;;;;;5080428;28;20047;-80
2021/08/23 10:25:01;;;;;;;3.63;1.80;;;;;;;;;;5091495;28;20024;-79
2021/08/23 10:27:32;;;;;;;3.33;1.65;;;;;;;;;;5091222;28;21118;-80
2021/08/23 10:29:58;;;;;;;2.78;1.50;;;;;;;;;;5077439;28;20031;-80
2021/08/23 10:32:32;;;;;;;3.95;1.67;;;;;;;;;;5099123;28;20032;-81
2021/08/23 10:35:14;;;;;;;3.35;2.40;;;;;;;;;;5096047;28;20032;-80
2021/08/23 10:37:43;;;;;;;5.95;1.85;;;;;;;;;;5096232;28;20038;-80
2021/08/23 10:40:09;;;;;;;4.32;1.52;;;;;;;;;;5061887;28;20024;-81
2021/08/23 10:42:37;;;;;;;3.42;1.73;;;;;;;;;;5089393;28;20029;-80
2021/08/23 10:45:21;;;;;;;2.78;1.70;;;;;;;;;;5084478;28;20016;-81
2021/08/23 10:47:48;;;;;;;2.22;1.40;;;;;;;;;;5064665;28;20085;-81
2021/08/23 10:50:24;;;;;;;4.45;1.50;;;;;;;;;;5083542;28;20050;-82
2021/08/23 10:52:50;;;;;;;3.17;1.50;;;;;;;;;;5095425;28;20034;-81
2021/08/23 10:55:20;;;;;;;4.57;1.50;;;;;;;;;;5095015;28;20017;-80
2021/08/23 10:57:46;;;;;;;2.75;1.38;;;;;;;;;;5082250;28;20119;-81
2021/08/23 11:00:17;;;;;;;3.75;1.48;;;;;;;;;;5075644;28;20060;-81
2021/08/23 11:02:43;;;;;;;4.25;1.20;;;;;;;;;;5077058;28;20020;-81
2021/08/23 11:05:20;;;;;;;2.53;1.42;;;;;;;;;;5079745;28;20051;-81
2021/08/23 11:07:59;;;;;;;1.60;1.10;;;;;;;;;;5096838;28;20111;-82
2021/08/23 11:10:25;;;;;;;2.80;1.30;;;;;;;;;;5093992;28;20056;-83
2021/08/23 11:12:51;;;;;;;2.00;1.30;;;;;;;;;;5087129;28;20024;-82
2021/08/23 11:15:27;;;;;;;1.40;1.00;;;;;;;;;;5073528;28;20539;-82
2021/08/23 11:17:56;;;;;;;1.77;1.08;;;;;;;;;;5084813;28;20023;-81
2021/08/23 11:20:25;;;;;;;1.30;1.20;;;;;;;;;;5084979;28;20013;-83
2021/08/23 11:23:01;;;;;;;2.47;1.08;;;;;;;;;;5085799;28;20021;-83
2021/08/23 11:25:27;;;;;;;3.97;1.10;;;;;;;;;;5090302;28;20095;-82
2021/08/23 11:27:53;;;;;;;2.25;1.73;;;;;;;;;;5087138;28;20467;-81
2021/08/23 11:30:33;;;;;;;5.47;2.03;;;;;;;;;;5077836;28;20059;-82
2021/08/23 11:32:59;;;;;;;3.08;1.20;;;;;;;;;;5070202;28;20119;-83
2021/08/23 11:35:25;;;;;;;2.25;1.20;;;;;;;;;;5080771;28;20013;-84
2021/08/23 11:37:55;;;;;;;2.35;1.35;;;;;;;;;;5083041;28;20080;-83
2021/08/23 11:40:21;;;;;;;3.47;1.30;;;;;;;;;;5082861;28;20031;-83
2021/08/23 11:42:51;;;;;;;2.70;1.23;;;;;;;;;;5095862;28;20023;-83
2021/08/23 11:45:21;;;;;;;6.55;1.40;;;;;;;;;;5084156;28;20028;-82
2021/08/23 11:47:48;;;;;;;3.45;1.75;;;;;;;;;;5089843;28;20028;-82
2021/08/23 11:50:16;;;;;;;1.80;1.35;;;;;;;;;;5071885;28;20066;-80
2021/08/23 11:52:42;;;;;;;2.45;1.40;;;;;;;;;;5052672;28;20032;-79
2021/08/23 11:55:09;;;;;;;5.55;1.77;;;;;;;;;;5091831;28;20016;-79
2021/08/23 11:57:36;;;;;;;2.30;1.15;;;;;;;;;;5095066;28;20031;-81
2021/08/23 12:00:05;;;;;;;6.80;1.50;;;;;;;;;;5075524;28;20024;-80
2021/08/23 12:02:32;;;;;;;4.28;1.50;;;;;;;;;;5076598;28;20025;-79
2021/08/23 12:05:11;;;;;;;1.73;1.25;;;;;;;;;;5075973;28;20532;-79
2021/08/23 12:07:42;;;;;;;4.22;1.23;;;;;;;;;;5075624;28;20497;-80
2021/08/23 12:10:08;;;;;;;1.88;1.13;;;;;;;;;;5079897;28;20365;-81
2021/08/23 12:12:34;;;;;;;4.03;1.20;;;;;;;;;;5090427;28;20024;-80
2021/08/23 12:15:00;;;;;;;4.03;1.40;;;;;;;;;;5087314;28;20027;-79
2021/08/23 12:17:33;;;;;;;5.28;1.50;;;;;;;;;;5088368;28;20102;-80
2021/08/23 12:20:06;;;;;;;2.60;1.30;;;;;;;;;;5088307;28;20055;-79
2021/08/23 12:22:38;;;;;;;2.53;1.10;;;;;;;;;;5093771;28;20068;-80
2021/08/23 12:25:04;;;;;;;3.88;1.23;;;;;;;;;;5097411;28;20045;-80
2021/08/23 12:27:30;;;;;;;2.08;1.17;;;;;;;;;;5091467;28;20024;-79
2021/08/23 12:29:58;;;;;;;2.78;1.10;;;;;;;;;;5084057;28;20031;-80
2021/08/23 12:32:32;;;;;;;2.60;1.05;;;;;;;;;;5067102;28;20498;-81
2021/08/23 12:34:58;;;;;;;2.67;1.92;;;;;;;;;;5085008;28;20047;-80
2021/08/23 12:37:24;;;;;;;2.72;1.20;;;;;;;;;;5086165;28;20032;-80
2021/08/23 12:39:50;;;;;;;2.50;1.20;;;;;;;;;;5086921;28;20017;-80
2021/08/23 12:42:21;;;;;;;1.65;1.17;;;;;;;;;;5076938;28;20475;-80
2021/08/23 12:44:47;;;;;;;3.63;1.10;;;;;;;;;;5096519;28;20028;-80
2021/08/23 12:47:14;;;;;;;1.45;0.98;;;;;;;;;;5088179;28;20063;-79
2021/08/23 12:49:40;;;;;;;3.20;1.13;;;;;;;;;;5088224;28;20080;-79
2021/08/23 12:52:06;;;;;;;3.35;0.90;;;;;;;;;;5090157;28;20036;-79
2021/08/23 12:54:32;;;;;;;3.80;1.05;;;;;;;;;;5093222;28;20116;-79
2021/08/23 12:56:58;;;;;;;3.75;1.25;;;;;;;;;;5086295;28;20035;-80
2021/08/23 12:59:25;;;;;;;5.60;1.40;;;;;;;;;;5079910;28;20028;-81
2021/08/23 13:01:51;;;;;;;8.15;1.55;;;;;;;;;;5081053;28;20035;-80
2021/08/23 13:04:17;;;;;;;6.88;1.48;;;;;;;;;;5095006;28;20388;-80
2021/08/23 13:06:43;;;;;;;2.22;1.05;;;;;;;;;;5100560;28;20400;-80
2021/08/23 13:09:09;;;;;;;3.25;1.10;;;;;;;;;;5092383;28;20028;-82
2021/08/23 13:11:36;;;;;;;3.78;1.13;;;;;;;;;;5092441;28;20103;-80
2021/08/23 13:14:03;;;;;;;1.55;1.02;;;;;;;;;;5088705;28;20024;-80
2021/08/23 13:16:30;;;;;;;1.45;1.00;;;;;;;;;;5090491;28;20044;-80
2021/08/23 13:18:57;;;;;;;2.88;1.30;;;;;;;;;;5092701;28;20056;-80
2021/08/23 13:21:23;;;;;;;2.45;1.10;;;;;;;;;;5094546;28;20023;-80
2021/08/23 13:23:49;;;;;;;1.42;0.95;;;;;;;;;;5092445;28;20035;-80
2021/08/23 13:26:15;;;;;;;1.77;0.82;;;;;;;;;;5090220;28;20023;-79
2021/08/23 13:28:41;;;;;;;1.77;0.75;;;;;;;;;;5090659;28;20476;-80
2021/08/23 13:31:07;;;;;;;2.67;1.00;;;;;;;;;;5086654;28;20031;-80
2021/08/23 13:33:33;;;;;;;2.10;1.35;;;;;;;;;;5089944;28;20055;-79
2021/08/23 13:36:00;;;;;;;3.85;1.17;;;;;;;;;;5101768;28;20028;-79
2021/08/23 13:38:26;;;;;;;4.13;1.33;;;;;;;;;;5101247;28;20016;-81
2021/08/23 13:40:52;;;;;;;1.65;1.25;;;;;;;;;;5093463;28;20103;-78
2021/08/23 13:43:19;;;;;;;6.57;1.80;;;;;;;;;;5089884;28;20492;-79
2021/08/23 13:45:46;;;;;;;3.45;1.40;;;;;;;;;;5070555;28;20021;-79
2021/08/23 13:48:12;;;;;;;6.88;1.55;;;;;;;;;;5093706;28;20456;-81
2021/08/23 13:50:39;;;;;;;1.60;1.10;;;;;;;;;;5084458;28;20028;-79
2021/08/23 13:53:05;;;;;;;3.50;1.27;;;;;;;;;;5091996;28;20424;-79
2021/08/23 13:55:32;;;;;;;4.75;1.35;;;;;;;;;;5090591;28;20370;-79
2021/08/23 13:58:04;;;;;;;1.27;1.00;;;;;;;;;;5106100;28;20053;-80
2021/08/23 14:00:31;;;;;;;1.45;1.10;;;;;;;;;;5114755;28;20039;-81
2021/08/23 14:02:57;;;;;;;1.83;1.10;;;;;;;;;;5111261;28;20020;-81
2021/08/23 14:05:30;;;;;;;1.77;1.17;;;;;;;;;;5084783;28;20024;-78
2021/08/23 14:08:03;;;;;;;1.52;0.93;;;;;;;;;;5074202;28;20412;-78
2021/08/23 14:10:43;;;;;;;1.25;1.05;;;;;;;;;;5069087;28;20021;-80
2021/08/23 14:13:11;;;;;;;2.05;1.42;;;;;;;;;;5117379;28;20027;-82
2021/08/23 14:15:38;;;;;;;3.15;2.15;;;;;;;;;;5112684;28;20020;-80
2021/08/23 14:18:04;;;;;;;3.47;1.20;;;;;;;;;;5112575;28;20043;-80
2021/08/23 14:20:30;;;;;;;2.22;1.17;;;;;;;;;;5114933;28;20076;-81
2021/08/23 14:22:56;;;;;;;4.40;1.40;;;;;;;;;;5084381;28;20016;-82
2021/08/23 14:25:22;;;;;;;1.42;1.10;;;;;;;;;;5102135;28;20107;-80
2021/08/23 14:27:48;;;;;;;3.05;1.00;;;;;;;;;;5083155;28;20028;-80
2021/08/23 14:30:14;;;;;;;1.63;1.10;;;;;;;;;;5095959;28;20020;-81
2021/08/23 14:32:40;;;;;;;3.03;1.23;;;;;;;;;;5092464;28;20028;-80
2021/08/23 14:35:06;;;;;;;6.25;1.90;;;;;;;;;;5099575;28;20042;-79
2021/08/23 14:37:32;;;;;;;3.67;2.15;;;;;;;;;;5087470;28;20532;-79
2021/08/23 14:39:58;;;;;;;2.65;1.58;;;;;;;;;;5094552;28;20028;-79
2021/08/23 14:42:24;;;;;;;1.90;1.40;;;;;;;;;;5075999;28;20027;-79